Time;durP1;ratioP1;P1;durP2;ratioP2;P2;SDS_P1;SDS_P2;PMS_P1;PMS_P2;Temp;Humidity;BMP_temperature;BMP_pressure;BME280_temperature;BME280_humidity;BME280_pressure;Samples;Min_cycle;Max_cycle;Signal;HPM_P1;HPM_P2
2021/05/31 00:02:08;;;;;;;6.50;4.00;;;;;;;;;;5048732;28;20124;-78
2021/05/31 00:04:35;;;;;;;5.38;3.83;;;;;;;;;;5047638;28;20040;-78
2021/05/31 00:07:05;;;;;;;4.43;3.95;;;;;;;;;;5062391;28;20057;-78
2021/05/31 00:09:32;;;;;;;5.20;4.00;;;;;;;;;;5068809;28;20045;-79
2021/05/31 00:11:58;;;;;;;5.93;3.80;;;;;;;;;;5066616;28;20025;-79
2021/05/31 00:14:24;;;;;;;6.75;4.10;;;;;;;;;;5051246;28;20024;-79
2021/05/31 00:16:51;;;;;;;5.88;4.10;;;;;;;;;;5068396;28;20017;-79
2021/05/31 00:19:19;;;;;;;7.80;4.35;;;;;;;;;;5049607;28;20535;-79
2021/05/31 00:21:45;;;;;;;5.05;3.88;;;;;;;;;;5067085;28;20032;-78
2021/05/31 00:24:11;;;;;;;4.72;4.00;;;;;;;;;;5069793;28;20379;-79
2021/05/31 00:26:37;;;;;;;6.00;3.92;;;;;;;;;;5041657;28;20032;-79
2021/05/31 00:29:03;;;;;;;7.55;4.15;;;;;;;;;;5062776;28;20044;-79
2021/05/31 00:31:29;;;;;;;5.95;4.30;;;;;;;;;;5068450;28;20063;-79
2021/05/31 00:33:56;;;;;;;8.70;4.20;;;;;;;;;;5056603;28;20029;-77
2021/05/31 00:36:22;;;;;;;6.15;4.65;;;;;;;;;;5072085;28;20020;-79
2021/05/31 00:38:51;;;;;;;7.03;4.78;;;;;;;;;;5072990;28;20021;-79
2021/05/31 00:41:20;;;;;;;6.20;4.75;;;;;;;;;;5085554;28;20025;-79
2021/05/31 00:43:49;;;;;;;5.80;4.68;;;;;;;;;;5073991;28;20033;-79
2021/05/31 00:46:16;;;;;;;7.53;4.90;;;;;;;;;;5078448;28;20035;-79
2021/05/31 00:48:43;;;;;;;6.05;4.72;;;;;;;;;;5071388;28;20033;-79
2021/05/31 00:51:10;;;;;;;5.75;4.90;;;;;;;;;;5069357;28;20035;-79
2021/05/31 00:53:37;;;;;;;5.30;4.63;;;;;;;;;;5046062;28;20025;-78
2021/05/31 00:56:04;;;;;;;6.13;4.65;;;;;;;;;;5051326;28;20075;-78
2021/05/31 00:58:33;;;;;;;6.63;4.95;;;;;;;;;;5052144;28;20029;-79
2021/05/31 01:01:02;;;;;;;8.00;5.20;;;;;;;;;;5087582;22;20098;-79
2021/05/31 01:03:28;;;;;;;7.03;5.75;;;;;;;;;;5090259;28;20087;-79
2021/05/31 01:05:56;;;;;;;7.05;5.47;;;;;;;;;;5088855;28;20044;-79
2021/05/31 01:08:41;;;;;;;6.50;4.90;;;;;;;;;;5068538;28;20079;-79
2021/05/31 01:11:27;;;;;;;7.30;5.05;;;;;;;;;;5066149;28;20024;-79
2021/05/31 01:14:00;;;;;;;6.70;4.57;;;;;;;;;;5007118;28;20127;-79
2021/05/31 01:16:30;;;;;;;5.50;4.90;;;;;;;;;;4988504;28;20041;-78
2021/05/31 01:18:59;;;;;;;8.40;5.03;;;;;;;;;;5012642;28;20110;-79
2021/05/31 01:21:32;;;;;;;6.90;4.82;;;;;;;;;;5007046;28;20094;-79
2021/05/31 01:23:58;;;;;;;;;;;;;;;;;;5006274;28;20078;-79
2021/05/31 01:26:25;;;;;;;6.65;5.32;;;;;;;;;;4995926;28;19914;-79
2021/05/31 01:28:54;;;;;;;6.05;5.13;;;;;;;;;;4988545;28;20042;-79
2021/05/31 01:31:43;;;;;;;6.53;5.40;;;;;;;;;;4995843;28;20062;-79
2021/05/31 01:34:11;;;;;;;7.88;5.75;;;;;;;;;;4944816;29;20032;-78
2021/05/31 01:36:39;;;;;;;8.07;5.65;;;;;;;;;;4949179;29;20040;-79
2021/05/31 01:39:06;;;;;;;7.68;5.43;;;;;;;;;;4935028;29;20039;-78
2021/05/31 01:41:32;;;;;;;10.27;6.00;;;;;;;;;;4960345;29;20042;-79
2021/05/31 01:43:59;;;;;;;8.18;5.78;;;;;;;;;;4953823;29;20083;-78
2021/05/31 01:46:25;;;;;;;7.10;5.68;;;;;;;;;;4947059;29;20063;-78
2021/05/31 01:48:52;;;;;;;8.63;6.28;;;;;;;;;;4947592;29;20050;-79
2021/05/31 01:51:18;;;;;;;7.78;5.90;;;;;;;;;;4985949;28;20045;-78
2021/05/31 01:53:45;;;;;;;8.15;6.80;;;;;;;;;;4994293;28;20030;-79
2021/05/31 01:56:12;;;;;;;10.25;6.40;;;;;;;;;;4988978;28;20030;-79
2021/05/31 01:58:39;;;;;;;7.70;6.43;;;;;;;;;;5007805;28;20039;-78
2021/05/31 02:01:06;;;;;;;7.47;6.25;;;;;;;;;;4981179;28;20050;-79
2021/05/31 02:03:32;;;;;;;8.50;6.30;;;;;;;;;;4980619;28;20592;-78
2021/05/31 02:05:58;;;;;;;10.20;6.35;;;;;;;;;;4983324;28;20031;-78
2021/05/31 02:08:24;;;;;;;8.27;6.32;;;;;;;;;;4993776;28;20029;-79
2021/05/31 02:10:50;;;;;;;9.75;6.88;;;;;;;;;;5009134;28;20045;-79
2021/05/31 02:13:16;;;;;;;8.40;6.05;;;;;;;;;;5067558;28;20017;-78
2021/05/31 02:15:54;;;;;;;9.25;6.22;;;;;;;;;;5068367;28;20060;-79
2021/05/31 02:18:33;;;;;;;8.20;6.35;;;;;;;;;;5069840;28;20029;-78
2021/05/31 02:21:17;;;;;;;8.40;5.90;;;;;;;;;;5062457;28;20021;-78
2021/05/31 02:23:44;;;;;;;8.98;6.45;;;;;;;;;;5061789;28;20029;-79
2021/05/31 02:26:13;;;;;;;8.85;6.32;;;;;;;;;;5069361;28;20037;-79
2021/05/31 02:28:39;;;;;;;8.90;6.28;;;;;;;;;;5061540;28;20040;-78
2021/05/31 02:31:10;;;;;;;8.43;5.80;;;;;;;;;;5066786;28;20036;-79
2021/05/31 02:33:36;;;;;;;9.70;6.18;;;;;;;;;;5065944;28;20028;-78
2021/05/31 02:36:12;;;;;;;8.68;6.53;;;;;;;;;;5065275;28;20049;-79
2021/05/31 02:38:41;;;;;;;9.52;6.15;;;;;;;;;;5070252;28;20048;-78
2021/05/31 02:41:13;;;;;;;7.85;6.00;;;;;;;;;;5068477;28;20041;-79
2021/05/31 02:43:54;;;;;;;13.05;6.20;;;;;;;;;;5068738;28;20056;-79
2021/05/31 02:46:20;;;;;;;8.30;5.80;;;;;;;;;;5065386;28;20053;-79
2021/05/31 02:48:46;;;;;;;7.85;5.95;;;;;;;;;;5068882;28;20024;-79
2021/05/31 02:51:12;;;;;;;8.40;5.97;;;;;;;;;;5068363;28;20036;-78
2021/05/31 02:53:39;;;;;;;9.55;5.80;;;;;;;;;;5068431;28;20040;-79
2021/05/31 02:56:07;;;;;;;11.27;6.45;;;;;;;;;;5069364;28;20039;-79
2021/05/31 02:58:33;;;;;;;8.35;5.90;;;;;;;;;;5066414;28;20017;-78
2021/05/31 03:00:59;;;;;;;8.05;6.22;;;;;;;;;;5062347;28;20018;-78
2021/05/31 03:03:25;;;;;;;12.63;6.40;;;;;;;;;;5065733;28;20028;-76
2021/05/31 03:05:51;;;;;;;10.00;6.40;;;;;;;;;;5064740;28;20048;-78
2021/05/31 03:08:17;;;;;;;9.50;7.00;;;;;;;;;;5067018;28;20035;-77
2021/05/31 03:10:44;;;;;;;7.72;6.72;;;;;;;;;;5063286;28;20025;-78
2021/05/31 03:13:10;;;;;;;8.95;7.03;;;;;;;;;;5060823;28;20025;-78
2021/05/31 03:15:37;;;;;;;7.82;6.68;;;;;;;;;;5058394;28;20128;-78
2021/05/31 03:18:04;;;;;;;9.23;6.57;;;;;;;;;;5059849;28;20028;-77
2021/05/31 03:20:32;;;;;;;8.73;6.97;;;;;;;;;;5060591;28;20021;-78
2021/05/31 03:23:01;;;;;;;10.73;7.55;;;;;;;;;;5060698;28;20489;-78
2021/05/31 03:25:27;;;;;;;10.43;7.55;;;;;;;;;;5067761;28;20496;-79
2021/05/31 03:27:54;;;;;;;8.82;6.72;;;;;;;;;;5060243;28;20056;-78
2021/05/31 03:30:21;;;;;;;9.35;7.15;;;;;;;;;;5061329;28;20028;-79
2021/05/31 03:32:47;;;;;;;9.38;6.88;;;;;;;;;;5063153;28;20385;-79
2021/05/31 03:35:14;;;;;;;8.30;6.97;;;;;;;;;;5062966;28;20040;-77
2021/05/31 03:37:40;;;;;;;11.70;7.32;;;;;;;;;;5066921;28;20033;-79
2021/05/31 03:40:07;;;;;;;8.52;6.90;;;;;;;;;;5073189;28;20017;-78
2021/05/31 03:42:36;;;;;;;9.07;7.32;;;;;;;;;;5062992;28;20049;-78
2021/05/31 03:45:09;;;;;;;8.45;6.97;;;;;;;;;;5062521;28;20025;-77
2021/05/31 03:47:35;;;;;;;9.93;6.35;;;;;;;;;;5060947;28;20021;-78
2021/05/31 03:50:02;;;;;;;8.30;6.75;;;;;;;;;;5043574;28;20039;-78
2021/05/31 03:52:28;;;;;;;7.78;6.97;;;;;;;;;;5066084;28;20055;-78
2021/05/31 03:54:54;;;;;;;7.78;6.95;;;332.80;2329.60;;;;;;5055648;28;20024;-78
2021/05/31 03:57:20;;;;;;;10.77;6.80;;;308.10;2304.00;;;;;;5058203;28;20025;-78
2021/05/31 03:59:49;;;;;;;13.07;7.63;;;308.10;2304.00;;;;;;5056302;28;20083;-78
2021/05/31 04:02:15;;;;;;;10.23;7.22;;;332.80;2329.60;;;;;;5061131;28;20064;-78
2021/05/31 04:04:43;;;;;;;11.93;7.05;;;332.90;2329.60;;;;;;5058372;28;20037;-78
2021/05/31 04:12:38;;;;;;;10.55;6.90;;;333.00;2329.60;;;;;;5053937;28;20500;-78
2021/05/31 04:15:05;;;;;;;10.05;7.15;;;333.00;2329.60;;;;;;5051528;28;20037;-78
2021/05/31 04:17:31;;;;;;;8.95;7.55;;;333.30;2329.60;;;;;;5056100;28;20040;-77
2021/05/31 04:19:57;;;;;;;10.35;7.13;;;333.00;2329.60;;;;;;5058292;28;20466;-79
2021/05/31 04:22:23;;;;;;;15.57;7.63;;;333.00;2329.60;;;;;;5058368;28;20103;-79
2021/05/31 04:24:48;;;;;;;13.65;7.63;;;333.10;2329.60;;;;;;5054407;28;20032;-78
2021/05/31 04:27:14;;;;;;;10.00;6.88;;;333.10;2329.60;;;;;;5057077;28;20118;-78
2021/05/31 04:29:40;;;;;;;11.82;6.88;;;;;;;;;;5057900;28;20718;-76
2021/05/31 04:32:06;;;;;;;9.50;6.85;;;;;;;;;;5060141;28;20040;-78
2021/05/31 04:34:34;;;;;;;9.38;7.50;;;;;;;;;;5065069;28;20017;-78
2021/05/31 04:37:00;;;;;;;10.25;7.10;;;;;;;;;;5072484;28;20469;-78
2021/05/31 04:39:29;;;;;;;8.88;6.40;;;;;;;;;;5074016;28;20040;-79
2021/05/31 04:41:56;;;;;;;8.02;6.05;;;;;;;;;;5065740;28;20033;-79
2021/05/31 04:44:22;;;;;;;7.65;5.85;;;;;;;;;;5058642;28;20068;-78
2021/05/31 04:46:49;;;;;;;9.75;6.57;;;;;;;;;;5054252;28;20025;-77
2021/05/31 04:49:16;;;;;;;7.53;5.78;;;;;;;;;;5063953;28;20091;-78
2021/05/31 04:51:51;;;;;;;7.82;6.07;;;;;;;;;;5070317;28;20021;-79
2021/05/31 04:54:18;;;;;;;7.97;5.40;;;;;;;;;;5047836;28;20029;-79
2021/05/31 04:56:44;;;;;;;7.05;4.93;;;;;;;;;;5070466;28;20021;-78
2021/05/31 04:59:10;;;;;;;8.23;5.20;;;;;;;;;;5066531;28;20028;-78
2021/05/31 05:01:36;;;;;;;8.98;5.75;;;;;;;;;;5050288;28;20060;-77
2021/05/31 05:04:05;;;;;;;7.60;5.28;;;;;;;;;;5052845;28;20021;-78
2021/05/31 05:06:54;;;;;;;8.98;5.60;;;;;;;;;;5064743;28;20037;-76
2021/05/31 05:09:23;;;;;;;10.88;5.30;;;;;;;;;;5082649;28;20032;-76
2021/05/31 05:11:51;;;;;;;6.90;4.70;;;;;;;;;;5064786;28;20096;-78
2021/05/31 05:14:18;;;;;;;9.05;5.55;;;;;;;;;;5064508;28;20036;-75
2021/05/31 05:17:01;;;;;;;5.95;4.60;;;;;;;;;;5056187;28;20480;-77
2021/05/31 05:19:28;;;;;;;5.93;4.80;;;;;;;;;;5053987;28;20033;-79
2021/05/31 05:21:55;;;;;;;7.47;4.80;;;;;;;;;;5057610;28;20489;-76
2021/05/31 05:24:21;;;;;;;7.90;5.40;;;;;;;;;;5060085;28;20040;-78
2021/05/31 05:26:47;;;;;;;7.97;5.50;;;;;;;;;;5056305;28;20025;-74
2021/05/31 05:29:14;;;;;;;6.68;5.25;;;;;;;;;;5054249;28;20037;-75
2021/05/31 05:31:40;;;;;;;6.85;4.78;;;;;;;;;;5054252;28;20029;-75
2021/05/31 05:34:06;;;;;;;8.18;5.03;;;;;;;;;;5054539;28;20025;-74
2021/05/31 05:36:50;;;;;;;7.03;5.43;;;;;;;;;;5055324;28;20024;-75
2021/05/31 05:49:43;;;;;;;5.03;4.10;;;;;;;;;;5056789;28;20136;-76
2021/05/31 05:52:10;;;;;;;8.27;4.22;;;;;;;;;;5052482;28;20032;-77
2021/05/31 05:54:36;;;;;;;18.48;9.10;;;;;;;;;;5055311;28;20060;-77
2021/05/31 05:57:02;;;;;;;25.92;11.77;;;;;;;;;;5058168;28;20005;-78
2021/05/31 05:59:28;;;;;;;8.13;4.63;;;;;;;;;;5059205;28;20021;-76
2021/05/31 06:01:58;;;;;;;7.05;4.57;;;;;;;;;;5048984;28;20049;-77
2021/05/31 06:04:24;;;;;;;10.10;5.10;;;;;;;;;;5019033;28;20291;-74
2021/05/31 06:06:51;;;;;;;6.72;5.00;;;;;;;;;;5027898;28;20049;-76
2021/05/31 06:09:17;;;;;;;6.43;5.10;;;;;;;;;;5047426;28;20013;-74
2021/05/31 06:11:44;;;;;;;7.30;5.18;;;;;;;;;;5043269;28;20048;-73
2021/05/31 06:14:10;;;;;;;8.07;5.00;;;;;;;;;;5033610;28;20030;-75
2021/05/31 06:16:39;;;;;;;6.35;5.00;;;;;;;;;;5034010;28;20022;-75
2021/05/31 06:19:10;;;;;;;6.68;4.72;;;;;;;;;;5035320;28;20029;-74
2021/05/31 06:21:36;;;;;;;6.95;4.47;;;;;;;;;;5038367;28;20048;-77
2021/05/31 06:24:05;;;;;;;6.88;5.05;;;;;;;;;;5020063;28;20100;-76
2021/05/31 06:26:31;;;;;;;6.75;5.00;;;;;;;;;;5039069;28;20024;-77
2021/05/31 06:28:57;;;;;;;5.28;4.38;;;;;;;;;;5024562;28;20037;-77
2021/05/31 06:31:23;;;;;;;6.10;4.95;;;;;;;;;;5038932;28;20025;-74
2021/05/31 06:33:49;;;;;;;8.38;5.82;;;;;;;;;;5040406;28;20506;-78
2021/05/31 06:36:16;;;;;;;10.15;5.50;;;;;;;;;;5043166;28;20037;-76
2021/05/31 06:38:42;;;;;;;6.53;4.82;;;;;;;;;;5014945;28;20607;-74
2021/05/31 06:41:08;;;;;;;11.65;5.40;;;;;;;;;;5035155;28;20026;-76
2021/05/31 06:43:34;;;;;;;6.13;5.55;;;;;;;;;;5018108;28;20025;-76
2021/05/31 06:46:01;;;;;;;8.65;7.22;;;;;;;;;;5036056;28;20040;-72
2021/05/31 06:48:27;;;;;;;9.48;8.55;;;;;;;;;;5013641;28;20504;-74
2021/05/31 06:50:54;;;;;;;9.35;8.45;;;;;;;;;;5032446;28;20553;-73
2021/05/31 06:53:20;;;;;;;9.60;8.70;;;;;;;;;;5037641;28;20065;-79
2021/05/31 06:55:46;;;;;;;7.00;6.30;;;;;;;;;;5023156;28;20032;-79
2021/05/31 06:58:13;;;;;;;7.82;6.00;;;;;;;;;;5045765;28;20021;-78
2021/05/31 07:00:39;;;;;;;10.93;6.72;;;;;;;;;;5033764;28;20071;-77
2021/05/31 07:03:05;;;;;;;7.05;5.78;;;;;;;;;;5054927;28;20108;-78
2021/05/31 07:05:31;;;;;;;6.80;5.65;;;;;;;;;;5056741;28;20029;-77
2021/05/31 07:07:59;;;;;;;4.95;4.45;;;;;;;;;;5055020;28;20070;-77
2021/05/31 07:10:27;;;;;;;5.70;5.00;;;;;;;;;;5058083;28;20048;-76
2021/05/31 07:12:53;;;;;;;6.80;5.40;;;;;;;;;;5054106;28;20029;-77
2021/05/31 07:15:20;;;;;;;7.53;5.72;;;;;;;;;;5054944;28;20474;-74
2021/05/31 07:17:46;;;;;;;7.20;5.38;;;;;;;;;;5054043;28;20017;-73
2021/05/31 07:20:15;;;;;;;10.05;5.50;;;;;;;;;;5051651;28;20057;-73
2021/05/31 07:22:43;;;;;;;21.80;16.85;;;;;;;;;;5051724;28;20037;-75
2021/05/31 07:25:10;;;;;;;7.80;6.68;;;;;;;;;;5050605;28;20025;-75
2021/05/31 07:27:37;;;;;;;6.30;4.63;;;;;;;;;;5049920;28;20033;-76
2021/05/31 07:30:06;;;;;;;6.88;5.05;;;;;;;;;;5052411;28;20044;-77
2021/05/31 07:32:32;;;;;;;7.25;6.10;;;;;;;;;;5053239;28;20033;-75
2021/05/31 07:34:58;;;;;;;7.78;4.60;;;;;;;;;;5052249;28;20025;-75
2021/05/31 07:37:24;;;;;;;7.07;4.20;;;;;;;;;;5045872;28;20063;-77
2021/05/31 07:39:50;;;;;;;7.63;4.35;;;;;;;;;;5048011;28;20109;-76
2021/05/31 07:42:16;;;;;;;6.63;4.88;;;;;;;;;;5050838;28;20434;-75
2021/05/31 07:44:45;;;;;;;22.17;19.25;;;;;;;;;;5049296;28;20029;-75
2021/05/31 07:47:11;;;;;;;12.50;11.05;;;;;;;;;;5051925;28;20012;-76
2021/05/31 07:49:37;;;;;;;7.40;6.40;;;;;;;;;;5049431;28;20036;-74
2021/05/31 07:52:19;;;;;;;6.32;5.22;;;;;;;;;;5049498;28;20033;-75
2021/05/31 07:54:46;;;;;;;8.52;6.78;;;;;;;;;;5058496;28;20032;-76
2021/05/31 07:57:12;;;;;;;8.18;6.20;;;;;;;;;;5060722;28;20027;-76
2021/05/31 07:59:38;;;;;;;5.78;4.65;;;;;;;;;;5050665;28;20029;-75
2021/05/31 08:02:04;;;;;;;8.40;6.22;;;;;;;;;;5051340;28;20041;-77
2021/05/31 08:04:33;;;;;;;11.68;9.52;;;;;;;;;;5057887;28;20112;-77
2021/05/31 08:07:01;;;;;;;15.95;10.27;;;;;;;;;;5059624;28;20024;-77
2021/05/31 08:09:29;;;;;;;12.88;9.07;;;;;;;;;;5056527;28;20033;-77
2021/05/31 08:11:56;;;;;;;16.55;10.35;;;;;;;;;;5052547;28;20025;-75
2021/05/31 08:14:22;;;;;;;8.68;5.38;;;;;;;;;;5054728;28;20099;-77
2021/05/31 08:16:49;;;;;;;5.80;4.10;;;;;;;;;;5058144;28;20024;-78
2021/05/31 08:19:15;;;;;;;5.00;4.40;;;;;;;;;;5049212;28;20021;-76
2021/05/31 08:21:41;;;;;;;7.35;4.95;;;;;;;;;;5057888;28;20486;-78
2021/05/31 08:24:08;;;;;;;6.05;5.10;;;;;;;;;;5066729;28;20162;-78
2021/05/31 08:26:35;;;;;;;6.65;5.28;;;;;;;;;;5058446;28;20025;-78
2021/05/31 08:29:01;;;;;;;5.85;4.45;;;;;;;;;;5055975;28;20500;-77
2021/05/31 08:31:27;;;;;;;8.10;6.20;;;;;;;;;;5051502;28;20029;-76
2021/05/31 08:33:53;;;;;;;4.70;3.65;;;;;;;;;;5057672;28;20025;-76
2021/05/31 08:36:20;;;;;;;4.97;4.05;;;;;;;;;;5056320;28;20029;-78
2021/05/31 08:38:46;;;;;;;5.53;3.70;;;;;;;;;;5064073;28;20486;-75
2021/05/31 08:41:13;;;;;;;5.65;4.00;;;;;;;;;;5060650;28;20041;-77
2021/05/31 08:43:39;;;;;;;5.60;4.40;;;;;;;;;;5056198;28;20021;-78
2021/05/31 08:46:08;;;;;;;4.70;4.00;;;;;;;;;;5054894;28;20021;-78
2021/05/31 08:48:34;;;;;;;5.07;3.72;;;;;;;;;;5052865;28;20119;-77
2021/05/31 08:51:01;;;;;;;4.60;3.90;;;;;;;;;;5052112;28;20068;-77
2021/05/31 08:53:27;;;;;;;6.85;4.72;;;;;;;;;;5055758;28;20031;-75
2021/05/31 08:55:53;;;;;;;5.70;4.32;;;;;;;;;;5054968;28;20446;-76
2021/05/31 08:58:19;;;;;;;5.07;3.40;;;;;;;;;;5062276;28;20029;-77
2021/05/31 09:00:45;;;;;;;4.55;3.53;;;;;;;;;;5056932;28;20025;-78
2021/05/31 09:03:11;;;;;;;4.80;3.25;;;;;;;;;;5047888;28;20053;-77
2021/05/31 09:05:42;;;;;;;5.68;4.55;;;;;;;;;;5040860;28;20021;-78
2021/05/31 09:08:24;;;;;;;3.83;3.20;;;;;;;;;;5003272;28;20053;-79
2021/05/31 09:10:59;;;;;;;4.50;3.47;;;;;;;;;;5043236;28;20479;-75
2021/05/31 09:13:28;;;;;;;4.88;3.90;;;;;;;;;;5038415;28;20035;-76
2021/05/31 09:16:07;;;;;;;5.53;3.88;;;;;;;;;;5034233;28;20028;-75
2021/05/31 09:18:35;;;;;;;5.68;3.60;;;;;;;;;;5036102;28;20029;-76
2021/05/31 09:21:11;;;;;;;8.23;3.88;;;;;;;;;;5036664;28;20024;-75
2021/05/31 09:23:37;;;;;;;5.10;3.35;;;;;;;;;;5034438;28;20430;-76
2021/05/31 09:26:04;;;;;;;4.88;3.20;;;;;;;;;;5041665;28;20052;-76
2021/05/31 09:28:30;;;;;;;3.22;2.80;;;;;;;;;;5039394;28;20021;-73
2021/05/31 09:30:58;;;;;;;4.05;2.88;;;;;;;;;;5042559;28;20068;-73
2021/05/31 09:33:31;;;;;;;3.28;2.85;;;;;;;;;;5046915;28;20033;-79
2021/05/31 09:36:07;;;;;;;4.70;3.33;;;;;;;;;;5046232;28;20029;-77
2021/05/31 09:38:34;;;;;;;3.40;3.00;;;;;;;;;;5027386;28;20026;-78
2021/05/31 09:41:26;;;;;;;5.45;2.90;;;;;;;;;;5027264;28;20029;-76
2021/05/31 09:43:54;;;;;;;3.85;2.50;;;;;;;;;;5034159;28;20025;-75
2021/05/31 09:46:21;;;;;;;2.60;2.40;;;;;;;;;;5045869;28;20386;-76
2021/05/31 09:48:47;;;;;;;2.67;2.40;;;;;;;;;;5039175;28;20458;-74
2021/05/31 09:51:15;;;;;;;3.00;2.60;;;;;;;;;;5035154;28;20088;-74
2021/05/31 09:53:41;;;;;;;2.90;2.45;;;;;;;;;;5041411;28;20044;-76
2021/05/31 09:56:14;;;;;;;3.70;2.53;;;;;;;;;;5041061;28;20500;-72
2021/05/31 09:59:03;;;;;;;6.38;3.05;;;;;;;;;;5038905;28;20033;-73
2021/05/31 10:01:43;;;;;;;3.60;2.67;;;;;;;;;;5043858;28;20030;-73
2021/05/31 10:04:23;;;;;;;4.18;3.20;;;;;;;;;;5057896;28;20021;-72
2021/05/31 10:09:16;;;;;;;4.50;2.70;;;;;;;;;;5056428;28;20084;-73
2021/05/31 10:11:44;;;;;;;4.10;2.60;;;;;;;;;;5057302;28;20025;-74
2021/05/31 10:14:11;;;;;;;7.97;3.58;;;;;;;;;;5051405;28;20041;-74
2021/05/31 10:16:38;;;;;;;3.90;2.70;;;;;;;;;;5052778;28;20048;-75
2021/05/31 10:19:05;;;;;;;3.35;2.60;;;;;;;;;;5040496;28;20048;-76
2021/05/31 10:21:33;;;;;;;3.25;2.53;;;;;;;;;;5055556;28;20521;-75
2021/05/31 10:24:00;;;;;;;3.20;2.40;;;;;;;;;;5055819;28;20029;-76
2021/05/31 10:26:28;;;;;;;9.25;5.03;;;;;;;;;;5062858;28;20059;-74
2021/05/31 10:28:55;;;;;;;4.65;3.58;;;;;;;;;;5048328;28;20069;-75
2021/05/31 10:31:21;;;;;;;4.53;3.00;;;;;;;;;;5058730;28;20025;-73
2021/05/31 10:34:02;;;;;;;3.83;2.90;;;;;;;;;;5062363;28;20021;-76
2021/05/31 10:36:37;;;;;;;4.88;2.67;;;;;;;;;;5053654;28;20112;-75
2021/05/31 10:39:05;;;;;;;4.82;2.85;;;;;;;;;;5054788;28;20040;-75
2021/05/31 10:41:31;;;;;;;3.42;2.55;;;;;;;;;;5055039;28;20089;-76
2021/05/31 10:43:59;;;;;;;6.78;2.63;;;;;;;;;;5055642;28;20127;-77
2021/05/31 10:46:36;;;;;;;3.83;2.70;;;;;;;;;;5054667;28;20045;-76
2021/05/31 10:49:04;;;;;;;3.15;2.53;;;;;;;;;;5062268;28;20032;-74
2021/05/31 10:51:36;;;;;;;3.80;2.60;;;;;;;;;;5062529;28;20116;-73
2021/05/31 10:54:12;;;;;;;3.95;2.72;;;;;;;;;;5059113;28;20036;-74
2021/05/31 10:56:41;;;;;;;9.77;6.07;;;;;;;;;;5050867;28;20490;-76
2021/05/31 10:59:07;;;;;;;3.90;3.38;;;;;;;;;;5056113;28;20104;-76
2021/05/31 11:01:33;;;;;;;4.15;2.83;;;;;;;;;;5055383;28;20406;-77
2021/05/31 11:04:01;;;;;;;3.10;2.80;;;;;;;;;;5053715;28;20776;-72
2021/05/31 11:06:31;;;;;;;3.92;2.70;;;;;;;;;;5052437;28;20029;-73
2021/05/31 11:09:06;;;;;;;3.70;2.83;;;;;;;;;;5053422;28;20025;-73
2021/05/31 11:11:33;;;;;;;3.15;2.80;;;;;;;;;;5060780;28;20028;-73
2021/05/31 11:14:00;;;;;;;3.30;2.50;;;;;;;;;;5074722;28;20059;-74
2021/05/31 11:16:59;;;;;;;3.03;2.60;;;;;;;;;;5057272;28;20398;-73
2021/05/31 11:19:35;;;;;;;5.25;3.17;;;;;;;;;;5001802;28;20387;-74
2021/05/31 11:22:21;;;;;;;3.83;2.65;;;;;;;;;;4994607;28;20841;-75
2021/05/31 11:24:51;;;;;;;3.67;2.40;;;;;;;;;;4999303;28;20519;-75
2021/05/31 11:27:17;;;;;;;5.70;2.40;;;;;;;;;;5000719;28;20039;-76
2021/05/31 11:29:45;;;;;;;4.75;2.65;;;;;;;;;;4995312;28;20500;-78
2021/05/31 11:32:11;;;;;;;3.40;2.38;;;;;;;;;;4999228;28;20082;-73
2021/05/31 11:34:38;;;;;;;6.75;2.85;;;;;;;;;;4994307;28;20065;-77
2021/05/31 11:37:04;;;;;;;7.45;2.90;;;;;;;;;;4989982;28;20026;-78
2021/05/31 11:39:34;;;;;;;2.78;2.40;;;;;;;;;;4993540;28;20041;-78
2021/05/31 11:42:04;;;;;;;2.85;2.20;;;;;;;;;;4995437;28;20048;-79
2021/05/31 11:44:31;;;;;;;2.78;2.50;;;;;;;;;;5003263;28;20074;-75
2021/05/31 11:46:58;;;;;;;2.60;2.35;;;;;;;;;;4992888;28;20078;-77
2021/05/31 11:49:26;;;;;;;3.25;2.40;;;;;;;;;;5006452;28;20105;-78
2021/05/31 11:52:00;;;;;;;3.75;2.47;;;;;;;;;;4992612;28;20038;-75
2021/05/31 11:54:27;;;;;;;3.08;2.40;;;;;;;;;;5010765;28;20071;-78
2021/05/31 11:56:53;;;;;;;7.25;2.55;;;;;;;;;;5055042;28;20020;-77
2021/05/31 11:59:20;;;;;;;2.63;2.40;;;;;;;;;;5053913;28;20429;-76
2021/05/31 12:01:49;;;;;;;5.32;2.70;;;;;;;;;;5055481;28;20052;-76
2021/05/31 12:04:16;;;;;;;4.03;2.30;;;;;;;;;;5062187;28;20021;-77
2021/05/31 12:06:43;;;;;;;4.22;2.30;;;;;;;;;;5052120;28;20021;-76
2021/05/31 12:09:16;;;;;;;3.35;2.35;;;;;;;;;;5050829;28;20029;-76
2021/05/31 12:11:43;;;;;;;2.95;2.53;;;;;;;;;;5058342;28;20072;-74
2021/05/31 12:14:11;;;;;;;2.40;2.20;;;;;;;;;;5051717;28;20052;-75
2021/05/31 12:16:37;;;;;;;2.95;2.30;;;;;;;;;;5055458;28;20040;-76
2021/05/31 12:19:16;;;;;;;4.15;2.20;;;;;;;;;;5033222;28;20029;-74
2021/05/31 12:21:43;;;;;;;2.95;2.40;;;;;;;;;;5049880;28;20029;-74
2021/05/31 12:24:09;;;;;;;2.85;2.20;;;;;;;;;;5050322;28;20096;-75
2021/05/31 12:26:37;;;;;;;3.80;2.42;;;;;;;;;;5050801;28;20017;-74
2021/05/31 12:29:09;;;;;;;2.50;2.30;;;;;;;;;;5057259;28;20080;-79
2021/05/31 12:31:35;;;;;;;2.70;2.25;;;;;;;;;;5064178;28;20032;-75
2021/05/31 12:34:01;;;;;;;3.25;2.35;;;;;;;;;;5069479;28;20025;-73
2021/05/31 12:36:28;;;;;;;4.43;2.50;;;;;;;;;;5068075;28;20025;-73
2021/05/31 12:38:54;;;;;;;3.83;2.50;;;;;;;;;;5052963;28;20158;-73
2021/05/31 12:41:21;;;;;;;4.38;2.80;;;;;;;;;;5049779;28;20052;-72
2021/05/31 12:43:47;;;;;;;4.03;2.65;;;;;;;;;;5054866;28;20036;-73
2021/05/31 12:46:20;;;;;;;3.85;2.60;;;;;;;;;;5054295;28;20025;-72
2021/05/31 12:48:52;;;;;;;4.67;2.53;;;;;;;;;;5052459;28;20067;-73
2021/05/31 12:51:18;;;;;;;3.28;2.80;;;;;;;;;;5053319;28;20273;-72
2021/05/31 12:53:48;;;;;;;2.75;2.50;;;;;;;;;;5052156;28;20544;-73
2021/05/31 12:56:15;;;;;;;2.97;2.45;;;;;;;;;;5057536;28;20378;-72
2021/05/31 12:58:41;;;;;;;5.15;2.70;;;;;;;;;;5054579;28;20104;-73
2021/05/31 13:01:09;;;;;;;4.13;2.90;;;;;;;;;;5056606;28;20508;-74
2021/05/31 13:03:36;;;;;;;3.70;2.63;;;;;;;;;;5055222;28;20056;-72
2021/05/31 13:06:05;;;;;;;3.60;2.60;;;;;;;;;;5057354;28;20056;-74
2021/05/31 13:08:38;;;;;;;3.78;2.80;;;;;;;;;;5055816;28;20032;-73
2021/05/31 13:11:05;;;;;;;4.65;2.83;;;;;;;;;;5049489;28;20060;-73
2021/05/31 13:13:35;;;;;;;4.13;3.20;;;;;;;;;;5053869;28;20075;-73
2021/05/31 13:16:04;;;;;;;4.03;2.80;;;;;;;;;;5054032;28;20099;-73
2021/05/31 13:18:31;;;;;;;4.85;3.20;;;;;;;;;;5053432;28;20463;-73
2021/05/31 13:21:18;;;;;;;4.55;3.40;;;;;;;;;;5036711;28;20425;-73
2021/05/31 13:23:48;;;;;;;4.63;3.60;;;;;;;;;;5031256;28;20079;-74
2021/05/31 13:26:18;;;;;;;4.63;3.13;;;;;;;;;;5047535;28;20063;-72
2021/05/31 13:28:44;;;;;;;5.15;3.30;;;;;;;;;;5052827;28;20406;-74
2021/05/31 13:31:17;;;;;;;4.88;3.50;;;;;;;;;;5047169;28;20040;-74
2021/05/31 13:33:46;;;;;;;4.88;3.42;;;;;;;;;;5050498;28;20013;-74
2021/05/31 13:36:13;;;;;;;5.10;3.80;;;;;;;;;;5055951;28;20028;-73
2021/05/31 13:38:39;;;;;;;6.22;3.55;;;;;;;;;;5053266;28;20033;-78
2021/05/31 13:41:06;;;;;;;4.60;3.70;;;;;;;;;;5043724;28;20025;-76
2021/05/31 13:43:35;;;;;;;4.85;3.40;;;;;;;;;;5039109;28;20049;-75
2021/05/31 13:46:01;;;;;;;44.55;17.20;;;;;;;;;;5057560;28;20020;-76
2021/05/31 13:48:27;;;;;;;5.55;3.85;;;;;;;;;;5057876;28;20032;-74
2021/05/31 13:51:00;;;;;;;4.65;3.50;;;;;;;;;;5054394;28;20478;-75
2021/05/31 13:53:27;;;;;;;4.93;3.30;;;;;;;;;;5055520;28;20025;-74
2021/05/31 13:55:53;;;;;;;6.10;3.20;;;;;;;;;;5055207;28;20374;-74
2021/05/31 13:58:20;;;;;;;5.50;2.95;;;;;;;;;;5054577;28;20533;-74
2021/05/31 14:00:46;;;;;;;7.03;4.80;;;;;;;;;;5054249;28;20037;-74
2021/05/31 14:03:13;;;;;;;13.63;7.38;;;;;;;;;;5058717;28;20037;-75
2021/05/31 14:05:40;;;;;;;7.40;4.63;;;;;;;;;;5054591;28;20028;-75
2021/05/31 14:08:07;;;;;;;8.82;5.70;;;;;;;;;;5054468;28;20079;-75
2021/05/31 14:10:34;;;;;;;8.25;4.70;;;;;;;;;;5036348;28;20106;-75
2021/05/31 14:13:01;;;;;;;10.27;5.45;;;;;;;;;;5051096;28;20056;-76
2021/05/31 14:15:28;;;;;;;9.80;6.05;;;;;;;;;;5049863;28;20029;-75
2021/05/31 14:17:54;;;;;;;10.00;5.80;;;;;;;;;;5043563;28;20022;-78
2021/05/31 14:20:40;;;;;;;6.63;3.03;;;;;;;;;;5058225;28;20083;-77
2021/05/31 14:23:08;;;;;;;7.25;4.10;;;;;;;;;;5053294;28;20029;-76
2021/05/31 14:25:35;;;;;;;10.07;7.35;;;;;;;;;;5060170;28;20087;-75
2021/05/31 14:28:01;;;;;;;7.93;5.85;;;;;;;;;;5053761;28;20048;-76
2021/05/31 14:30:28;;;;;;;5.30;3.22;;;;;;;;;;5054777;28;20090;-76
2021/05/31 14:32:57;;;;;;;4.93;3.60;;;;;;;;;;5054641;28;20104;-76
2021/05/31 14:35:24;;;;;;;8.65;5.85;;;;;;;;;;5059030;28;20033;-74
2021/05/31 14:37:52;;;;;;;12.93;7.75;;;;;;;;;;5058416;28;20035;-75
2021/05/31 14:40:19;;;;;;;10.48;6.45;;;;;;;;;;5057868;28;20052;-76
2021/05/31 14:42:45;;;;;;;15.93;8.65;;;;;;;;;;5058750;28;20071;-78
2021/05/31 14:45:12;;;;;;;15.57;9.93;;;;;;;;;;5057344;28;20040;-74
2021/05/31 14:47:38;;;;;;;13.02;8.43;;;;;;;;;;5055937;28;20021;-77
2021/05/31 14:50:05;;;;;;;15.38;9.35;;;;;;;;;;5058876;28;20062;-72
2021/05/31 14:52:34;;;;;;;17.55;9.60;;;;;;;;;;5058710;28;20029;-76
2021/05/31 14:55:04;;;;;;;15.13;8.85;;;;;;;;;;5060938;28;20103;-78
2021/05/31 14:57:30;;;;;;;17.35;9.93;;;;;;;;;;5063155;28;20091;-77
2021/05/31 14:59:56;;;;;;;9.65;6.00;;;;;;;;;;5061591;28;20440;-75
2021/05/31 15:02:22;;;;;;;26.58;14.70;;;;;;;;;;5066175;28;20049;-77